sensor_id;sensor_type;location;lat;lon;timestamp;pressure;altitude;pressure_sealevel;temperature;humidity
71194;BME280;58903;47.210;8.618;2022-07-30T00:00:29;94463.44;;;28.85;36.46
71194;BME280;58903;47.210;8.618;2022-07-30T00:02:57;94464.19;;;28.86;36.90
71194;BME280;58903;47.210;8.618;2022-07-30T00:05:23;94457.16;;;28.85;36.41
71194;BME280;58903;47.210;8.618;2022-07-30T00:07:49;94459.19;;;28.84;36.77
71194;BME280;58903;47.210;8.618;2022-07-30T00:10:17;94461.22;;;28.84;36.94
71194;BME280;58903;47.210;8.618;2022-07-30T00:12:45;94463.44;;;28.85;36.88
71194;BME280;58903;47.210;8.618;2022-07-30T00:15:12;94462.69;;;28.85;36.57
71194;BME280;58903;47.210;8.618;2022-07-30T00:17:39;94466.22;;;28.85;36.26
71194;BME280;58903;47.210;8.618;2022-07-30T00:20:06;94458.47;;;28.84;36.33
71194;BME280;58903;47.210;8.618;2022-07-30T00:22:34;94456.41;;;28.84;36.74
71194;BME280;58903;47.210;8.618;2022-07-30T00:25:08;94464.72;;;28.84;36.58
71194;BME280;58903;47.210;8.618;2022-07-30T00:28:12;94454.94;;;28.83;36.63
71194;BME280;58903;47.210;8.618;2022-07-30T00:30:39;94456.41;;;28.84;36.39
71194;BME280;58903;47.210;8.618;2022-07-30T00:33:14;94456.19;;;28.82;36.63
71194;BME280;58903;47.210;8.618;2022-07-30T00:35:40;94458.47;;;28.84;36.18
71194;BME280;58903;47.210;8.618;2022-07-30T00:38:08;94460.47;;;28.83;36.37
71194;BME280;58903;47.210;8.618;2022-07-30T00:40:34;94464.72;;;28.84;36.80
71194;BME280;58903;47.210;8.618;2022-07-30T00:43:19;94458.97;;;28.82;36.48
71194;BME280;58903;47.210;8.618;2022-07-30T00:45:57;94462.50;;;28.83;36.25
71194;BME280;58903;47.210;8.618;2022-07-30T00:48:27;94463.75;;;28.82;35.99
71194;BME280;58903;47.210;8.618;2022-07-30T00:51:07;94458.22;;;28.82;36.97
71194;BME280;58903;47.210;8.618;2022-07-30T00:53:33;94464.50;;;28.82;36.42
71194;BME280;58903;47.210;8.618;2022-07-30T00:56:05;94463.03;;;28.81;36.50
71194;BME280;58903;47.210;8.618;2022-07-30T00:58:41;94464.50;;;28.82;36.38
71194;BME280;58903;47.210;8.618;2022-07-30T01:01:07;94467.06;;;28.80;36.52
71194;BME280;58903;47.210;8.618;2022-07-30T01:03:33;94474.09;;;28.81;36.30
71194;BME280;58903;47.210;8.618;2022-07-30T01:05:59;94477.59;;;28.82;36.65
71194;BME280;58903;47.210;8.618;2022-07-30T01:08:35;94476.88;;;28.81;36.12
71194;BME280;58903;47.210;8.618;2022-07-30T01:11:03;94476.88;;;28.81;36.67
71194;BME280;58903;47.210;8.618;2022-07-30T01:13:37;94474.59;;;28.80;36.56
71194;BME280;58903;47.210;8.618;2022-07-30T01:16:12;94470.38;;;28.79;36.43
71194;BME280;58903;47.210;8.618;2022-07-30T01:18:42;94473.34;;;28.81;36.46
71194;BME280;58903;47.210;8.618;2022-07-30T01:21:37;94469.81;;;28.80;36.86
71194;BME280;58903;47.210;8.618;2022-07-30T01:24:35;94471.13;;;28.79;36.96
71194;BME280;58903;47.210;8.618;2022-07-30T01:27:12;94469.81;;;28.80;36.28
71194;BME280;58903;47.210;8.618;2022-07-30T01:30:06;94474.59;;;28.80;36.41
71194;BME280;58903;47.210;8.618;2022-07-30T01:32:46;94476.66;;;28.79;36.51
71194;BME280;58903;47.210;8.618;2022-07-30T01:35:16;94471.13;;;28.79;36.92
71194;BME280;58903;47.210;8.618;2022-07-30T01:37:54;94468.84;;;28.78;36.43
71194;BME280;58903;47.210;8.618;2022-07-30T01:40:31;94468.34;;;28.79;36.73
71194;BME280;58903;47.210;8.618;2022-07-30T01:43:28;94464.06;;;28.78;36.61
71194;BME280;58903;47.210;8.618;2022-07-30T01:46:08;94468.84;;;28.78;36.58
71194;BME280;58903;47.210;8.618;2022-07-30T01:48:48;94468.13;;;28.77;36.46
71194;BME280;58903;47.210;8.618;2022-07-30T01:51:17;94463.88;;;28.76;36.60
71194;BME280;58903;47.210;8.618;2022-07-30T01:53:52;94472.16;;;28.76;36.63
71194;BME280;58903;47.210;8.618;2022-07-30T01:56:22;94472.16;;;28.76;36.54
71194;BME280;58903;47.210;8.618;2022-07-30T01:58:51;94469.94;;;28.75;36.86
71194;BME280;58903;47.210;8.618;2022-07-30T02:01:22;94468.97;;;28.72;36.72
71194;BME280;58903;47.210;8.618;2022-07-30T02:03:52;94468.44;;;28.74;36.74
71194;BME280;58903;47.210;8.618;2022-07-30T02:06:28;94468.13;;;28.77;36.53
71194;BME280;58903;47.210;8.618;2022-07-30T02:09:03;94472.59;;;28.80;36.97
71194;BME280;58903;47.210;8.618;2022-07-30T02:11:50;94471.34;;;28.81;36.95
71194;BME280;58903;47.210;8.618;2022-07-30T02:18:12;94465.03;;;28.81;36.55
71194;BME280;58903;47.210;8.618;2022-07-30T02:20:36;94461.72;;;28.82;36.57
71194;BME280;58903;47.210;8.618;2022-07-30T02:23:06;94461.72;;;28.82;36.74
71194;BME280;58903;47.210;8.618;2022-07-30T02:25:49;94466.75;;;28.84;36.32
71194;BME280;58903;47.210;8.618;2022-07-30T02:28:18;94459.72;;;28.83;36.67
71194;BME280;58903;47.210;8.618;2022-07-30T02:30:59;94453.44;;;28.82;36.41
71194;BME280;58903;47.210;8.618;2022-07-30T02:33:33;94451.94;;;28.81;36.56
71194;BME280;58903;47.210;8.618;2022-07-30T02:36:05;94447.69;;;28.80;36.41
71194;BME280;58903;47.210;8.618;2022-07-30T02:38:34;94448.44;;;28.81;36.40
71194;BME280;58903;47.210;8.618;2022-07-30T02:41:06;94447.13;;;28.82;36.87
71194;BME280;58903;47.210;8.618;2022-07-30T02:43:36;94440.13;;;28.81;36.38
71194;BME280;58903;47.210;8.618;2022-07-30T02:46:06;94446.63;;;28.83;36.36
71194;BME280;58903;47.210;8.618;2022-07-30T02:48:37;94434.06;;;28.82;36.49
71194;BME280;58903;47.210;8.618;2022-07-30T02:51:07;94445.13;;;28.82;36.41
71194;BME280;58903;47.210;8.618;2022-07-30T02:53:36;94449.41;;;28.83;36.32
71194;BME280;58903;47.210;8.618;2022-07-30T02:56:07;94449.41;;;28.83;36.12
71194;BME280;58903;47.210;8.618;2022-07-30T02:58:36;94453.63;;;28.84;36.32
71194;BME280;58903;47.210;8.618;2022-07-30T03:01:07;94446.63;;;28.83;36.21
71194;BME280;58903;47.210;8.618;2022-07-30T03:03:35;94450.66;;;28.82;36.22
71194;BME280;58903;47.210;8.618;2022-07-30T03:06:04;94447.91;;;28.82;36.14
71194;BME280;58903;47.210;8.618;2022-07-30T03:08:34;94451.94;;;28.81;36.25
71194;BME280;58903;47.210;8.618;2022-07-30T03:11:02;94453.97;;;28.81;36.59
71194;BME280;58903;47.210;8.618;2022-07-30T03:13:30;94455.97;;;28.80;36.01
71194;BME280;58903;47.210;8.618;2022-07-30T03:15:57;94458.22;;;28.82;36.07
71194;BME280;58903;47.210;8.618;2022-07-30T03:18:32;94463.75;;;28.82;35.98
71194;BME280;58903;47.210;8.618;2022-07-30T03:21:00;94466.00;;;28.83;36.21
71194;BME280;58903;47.210;8.618;2022-07-30T03:23:33;94467.06;;;28.80;36.25
71194;BME280;58903;47.210;8.618;2022-07-30T03:26:11;94468.56;;;28.81;36.44
71194;BME280;58903;47.210;8.618;2022-07-30T03:28:42;94471.34;;;28.81;35.95
71194;BME280;58903;47.210;8.618;2022-07-30T03:31:12;94473.88;;;28.79;36.43
71194;BME280;58903;47.210;8.618;2022-07-30T03:33:42;94480.91;;;28.80;36.14
71194;BME280;58903;47.210;8.618;2022-07-30T03:36:11;94479.44;;;28.79;36.16
71194;BME280;58903;47.210;8.618;2022-07-30T03:38:42;94480.69;;;28.78;36.00
71194;BME280;58903;47.210;8.618;2022-07-30T03:41:14;94476.66;;;28.79;35.98
71194;BME280;58903;47.210;8.618;2022-07-30T03:43:46;94478.13;;;28.80;36.12
71194;BME280;58903;47.210;8.618;2022-07-30T03:46:22;94480.16;;;28.80;35.85
71194;BME280;58903;47.210;8.618;2022-07-30T03:48:59;94484.00;;;28.77;35.83
71194;BME280;58903;47.210;8.618;2022-07-30T03:51:31;94490.50;;;28.79;35.82
71194;BME280;58903;47.210;8.618;2022-07-30T03:54:28;94494.53;;;28.78;36.05
71194;BME280;58903;47.210;8.618;2022-07-30T03:57:03;94485.47;;;28.78;35.83
71194;BME280;58903;47.210;8.618;2022-07-30T03:59:29;94493.78;;;28.78;36.00
71194;BME280;58903;47.210;8.618;2022-07-30T04:02:00;94491.53;;;28.76;36.30
71194;BME280;58903;47.210;8.618;2022-07-30T04:04:30;94502.19;;;28.72;36.84
71194;BME280;58903;47.210;8.618;2022-07-30T04:06:56;94494.19;;;28.69;36.05
71194;BME280;58903;47.210;8.618;2022-07-30T04:09:29;94498.25;;;28.68;36.08
71194;BME280;58903;47.210;8.618;2022-07-30T04:12:09;94498.03;;;28.66;36.63
71194;BME280;58903;47.210;8.618;2022-07-30T04:15:10;94499.50;;;28.67;36.21
71194;BME280;58903;47.210;8.618;2022-07-30T04:17:50;94498.56;;;28.64;36.47
71194;BME280;58903;47.210;8.618;2022-07-30T04:20:35;94506.09;;;28.64;36.05
71194;BME280;58903;47.210;8.618;2022-07-30T04:23:02;94504.09;;;28.64;36.15
71194;BME280;58903;47.210;8.618;2022-07-30T04:25:30;94504.59;;;28.63;35.77
71194;BME280;58903;47.210;8.618;2022-07-30T04:27:59;94517.72;;;28.62;36.37
71194;BME280;58903;47.210;8.618;2022-07-30T04:34:05;94512.19;;;28.62;36.39
71194;BME280;58903;47.210;8.618;2022-07-30T04:36:46;94507.69;;;28.59;36.27
71194;BME280;58903;47.210;8.618;2022-07-30T04:39:45;94513.97;;;28.60;36.41
71194;BME280;58903;47.210;8.618;2022-07-30T04:42:28;94521.00;;;28.61;35.89
71194;BME280;58903;47.210;8.618;2022-07-30T04:44:57;94516.00;;;28.59;36.11
71194;BME280;58903;47.210;8.618;2022-07-30T04:47:34;94524.28;;;28.59;36.21
71194;BME280;58903;47.210;8.618;2022-07-30T04:50:14;94517.25;;;28.58;36.15
71194;BME280;58903;47.210;8.618;2022-07-30T04:53:13;94523.00;;;28.60;36.33
71194;BME280;58903;47.210;8.618;2022-07-30T04:55:45;94531.31;;;28.60;36.23
71194;BME280;58903;47.210;8.618;2022-07-30T04:58:17;94533.34;;;28.60;36.32
71194;BME280;58903;47.210;8.618;2022-07-30T05:00:53;94530.59;;;28.60;35.65
71194;BME280;58903;47.210;8.618;2022-07-30T05:03:21;94525.56;;;28.58;36.25
71194;BME280;58903;47.210;8.618;2022-07-30T05:05:50;94533.84;;;28.58;35.80
71194;BME280;58903;47.210;8.618;2022-07-30T05:08:19;94535.16;;;28.57;36.03
71194;BME280;58903;47.210;8.618;2022-07-30T05:10:45;94541.19;;;28.56;35.89
71194;BME280;58903;47.210;8.618;2022-07-30T05:13:13;94542.91;;;28.59;36.15
71194;BME280;58903;47.210;8.618;2022-07-30T05:15:40;94544.94;;;28.58;36.14
71194;BME280;58903;47.210;8.618;2022-07-30T05:18:06;94544.19;;;28.58;35.83
71194;BME280;58903;47.210;8.618;2022-07-30T05:20:39;94538.66;;;28.58;36.07
71194;BME280;58903;47.210;8.618;2022-07-30T05:23:07;94548.19;;;28.57;36.28
71194;BME280;58903;47.210;8.618;2022-07-30T05:25:33;94549.50;;;28.56;36.23
71194;BME280;58903;47.210;8.618;2022-07-30T05:27:59;94550.22;;;28.56;36.16
71194;BME280;58903;47.210;8.618;2022-07-30T05:30:25;94544.47;;;28.54;36.09
71194;BME280;58903;47.210;8.618;2022-07-30T05:32:53;94545.22;;;28.55;35.97
71194;BME280;58903;47.210;8.618;2022-07-30T05:35:51;94545.97;;;28.55;36.21
71194;BME280;58903;47.210;8.618;2022-07-30T05:38:18;94545.97;;;28.55;36.50
71194;BME280;58903;47.210;8.618;2022-07-30T05:40:46;94547.22;;;28.54;36.20
71194;BME280;58903;47.210;8.618;2022-07-30T05:43:25;94545.22;;;28.55;36.55
71194;BME280;58903;47.210;8.618;2022-07-30T05:45:52;94546.72;;;28.56;36.16
71194;BME280;58903;47.210;8.618;2022-07-30T05:48:18;94550.00;;;28.54;36.60
71194;BME280;58903;47.210;8.618;2022-07-30T05:50:56;94545.75;;;28.53;36.25
71194;BME280;58903;47.210;8.618;2022-07-30T05:53:22;94559.81;;;28.55;35.88
71194;BME280;58903;47.210;8.618;2022-07-30T05:55:48;94556.06;;;28.53;36.35
71194;BME280;58903;47.210;8.618;2022-07-30T05:58:34;94558.06;;;28.52;36.08
71194;BME280;58903;47.210;8.618;2022-07-30T06:01:00;94556.81;;;28.53;36.02
71194;BME280;58903;47.210;8.618;2022-07-30T06:03:26;94562.63;;;28.50;36.30
71194;BME280;58903;47.210;8.618;2022-07-30T06:05:52;94564.16;;;28.51;36.51
71194;BME280;58903;47.210;8.618;2022-07-30T06:08:27;94569.16;;;28.52;36.65
71194;BME280;58903;47.210;8.618;2022-07-30T06:11:04;94576.19;;;28.53;36.13
71194;BME280;58903;47.210;8.618;2022-07-30T06:13:31;94570.66;;;28.53;36.15
71194;BME280;58903;47.210;8.618;2022-07-30T06:15:58;94577.44;;;28.52;36.03
71194;BME280;58903;47.210;8.618;2022-07-30T06:18:35;94574.69;;;28.52;36.23
71194;BME280;58903;47.210;8.618;2022-07-30T06:21:33;94576.19;;;28.53;36.40
71194;BME280;58903;47.210;8.618;2022-07-30T06:24:30;94582.44;;;28.54;36.51
71194;BME280;58903;47.210;8.618;2022-07-30T06:27:10;94579.47;;;28.52;36.36
71194;BME280;58903;47.210;8.618;2022-07-30T06:29:48;94578.19;;;28.53;36.87
71194;BME280;58903;47.210;8.618;2022-07-30T06:32:48;94594.06;;;28.52;36.32
71194;BME280;58903;47.210;8.618;2022-07-30T06:35:30;94586.50;;;28.53;36.42
71194;BME280;58903;47.210;8.618;2022-07-30T06:37:56;94584.28;;;28.51;36.36
71194;BME280;58903;47.210;8.618;2022-07-30T06:40:32;94586.28;;;28.51;36.76
71194;BME280;58903;47.210;8.618;2022-07-30T06:42:58;94594.59;;;28.51;36.52
71194;BME280;58903;47.210;8.618;2022-07-30T06:45:24;94589.81;;;28.51;36.68
71194;BME280;58903;47.210;8.618;2022-07-30T06:48:13;94589.81;;;28.51;36.69
71194;BME280;58903;47.210;8.618;2022-07-30T06:51:15;94588.31;;;28.50;36.98
71194;BME280;58903;47.210;8.618;2022-07-30T06:54:15;94593.84;;;28.50;36.57
71194;BME280;58903;47.210;8.618;2022-07-30T06:56:44;94593.84;;;28.50;36.47
71194;BME280;58903;47.210;8.618;2022-07-30T06:59:21;94604.91;;;28.50;36.62
71194;BME280;58903;47.210;8.618;2022-07-30T07:01:47;94602.13;;;28.50;36.70
71194;BME280;58903;47.210;8.618;2022-07-30T07:04:18;94597.34;;;28.51;36.68
71194;BME280;58903;47.210;8.618;2022-07-30T07:06:59;94604.91;;;28.50;36.97
71194;BME280;58903;47.210;8.618;2022-07-30T07:09:26;94600.13;;;28.51;36.85
71194;BME280;58903;47.210;8.618;2022-07-30T07:12:04;94610.66;;;28.52;37.09
71194;BME280;58903;47.210;8.618;2022-07-30T07:14:32;94609.41;;;28.53;36.55
71194;BME280;58903;47.210;8.618;2022-07-30T07:16:58;94605.13;;;28.52;37.04
71194;BME280;58903;47.210;8.618;2022-07-30T07:22:53;94609.69;;;28.50;37.30
71194;BME280;58903;47.210;8.618;2022-07-30T07:25:20;94606.41;;;28.51;37.08
71194;BME280;58903;47.210;8.618;2022-07-30T07:27:47;94602.88;;;28.51;37.65
71194;BME280;58903;47.210;8.618;2022-07-30T07:30:22;94603.94;;;28.48;37.62
71194;BME280;58903;47.210;8.618;2022-07-30T07:32:49;94608.72;;;28.47;37.65
71194;BME280;58903;47.210;8.618;2022-07-30T07:35:19;94605.94;;;28.47;37.43
71194;BME280;58903;47.210;8.618;2022-07-30T07:37:49;94608.72;;;28.47;37.82
71194;BME280;58903;47.210;8.618;2022-07-30T07:40:45;94612.97;;;28.48;37.19
71194;BME280;58903;47.210;8.618;2022-07-30T07:43:20;94611.47;;;28.47;37.73
71194;BME280;58903;47.210;8.618;2022-07-30T07:45:48;94607.22;;;28.46;38.28
71194;BME280;58903;47.210;8.618;2022-07-30T07:48:17;94610.97;;;28.49;38.05
71194;BME280;58903;47.210;8.618;2022-07-30T07:50:43;94619.28;;;28.49;37.77
71194;BME280;58903;47.210;8.618;2022-07-30T07:53:11;94612.97;;;28.48;37.52
71194;BME280;58903;47.210;8.618;2022-07-30T07:55:46;94611.47;;;28.47;37.92
71194;BME280;58903;47.210;8.618;2022-07-30T07:58:14;94611.47;;;28.47;37.97
71194;BME280;58903;47.210;8.618;2022-07-30T08:00:43;94608.72;;;28.47;37.62
71194;BME280;58903;47.210;8.618;2022-07-30T08:03:09;94617.75;;;28.48;37.77
71194;BME280;58903;47.210;8.618;2022-07-30T08:05:35;94610.00;;;28.46;38.14
71194;BME280;58903;47.210;8.618;2022-07-30T08:08:01;94610.75;;;28.47;37.59
71194;BME280;58903;47.210;8.618;2022-07-30T08:10:27;94615.53;;;28.46;37.33
71194;BME280;58903;47.210;8.618;2022-07-30T08:12:56;94620.31;;;28.46;37.69
71194;BME280;58903;47.210;8.618;2022-07-30T08:15:24;94615.53;;;28.46;37.67
71194;BME280;58903;47.210;8.618;2022-07-30T08:17:53;94615.53;;;28.46;37.57
71194;BME280;58903;47.210;8.618;2022-07-30T08:20:27;94607.75;;;28.45;37.84
71194;BME280;58903;47.210;8.618;2022-07-30T08:22:53;94602.94;;;28.45;37.74
71194;BME280;58903;47.210;8.618;2022-07-30T08:25:21;94615.53;;;28.46;37.83
71194;BME280;58903;47.210;8.618;2022-07-30T08:27:48;94609.03;;;28.44;37.95
71194;BME280;58903;47.210;8.618;2022-07-30T08:30:15;94615.53;;;28.46;37.82
71194;BME280;58903;47.210;8.618;2022-07-30T08:32:43;94610.00;;;28.46;37.66
71194;BME280;58903;47.210;8.618;2022-07-30T08:35:41;94617.00;;;28.47;38.33
71194;BME280;58903;47.210;8.618;2022-07-30T08:38:08;94610.00;;;28.46;37.91
71194;BME280;58903;47.210;8.618;2022-07-30T08:40:36;94613.50;;;28.47;37.33
71194;BME280;58903;47.210;8.618;2022-07-30T08:43:16;94621.06;;;28.46;38.04
71194;BME280;58903;47.210;8.618;2022-07-30T08:45:55;94613.28;;;28.45;37.82
71194;BME280;58903;47.210;8.618;2022-07-30T08:48:34;94613.50;;;28.47;37.86
71194;BME280;58903;47.210;8.618;2022-07-30T08:51:14;94614.78;;;28.46;38.34
71194;BME280;58903;47.210;8.618;2022-07-30T08:53:44;94612.00;;;28.46;37.93
71194;BME280;58903;47.210;8.618;2022-07-30T08:56:23;94612.75;;;28.46;38.01
71194;BME280;58903;47.210;8.618;2022-07-30T08:59:03;94615.53;;;28.46;38.08
71194;BME280;58903;47.210;8.618;2022-07-30T09:01:31;94616.28;;;28.47;38.00
71194;BME280;58903;47.210;8.618;2022-07-30T09:03:59;94617.75;;;28.48;38.25
71194;BME280;58903;47.210;8.618;2022-07-30T09:06:25;94612.22;;;28.48;37.73
71194;BME280;58903;47.210;8.618;2022-07-30T09:09:11;94622.53;;;28.47;38.37
71194;BME280;58903;47.210;8.618;2022-07-30T09:11:48;94617.97;;;28.50;37.67
71194;BME280;58903;47.210;8.618;2022-07-30T09:14:27;94619.78;;;28.47;37.99
71194;BME280;58903;47.210;8.618;2022-07-30T09:17:01;94619.28;;;28.49;38.06
71194;BME280;58903;47.210;8.618;2022-07-30T09:19:29;94628.84;;;28.48;37.82
71194;BME280;58903;47.210;8.618;2022-07-30T09:22:02;94624.06;;;28.48;38.23
71194;BME280;58903;47.210;8.618;2022-07-30T09:24:59;94624.28;;;28.50;38.14
71194;BME280;58903;47.210;8.618;2022-07-30T09:27:42;94617.75;;;28.48;37.88
71194;BME280;58903;47.210;8.618;2022-07-30T09:30:10;94615.00;;;28.48;38.20
71194;BME280;58903;47.210;8.618;2022-07-30T09:32:56;94621.50;;;28.50;37.68
71194;BME280;58903;47.210;8.618;2022-07-30T09:35:42;94623.00;;;28.51;37.94
71194;BME280;58903;47.210;8.618;2022-07-30T09:38:09;94616.94;;;28.53;38.02
71194;BME280;58903;47.210;8.618;2022-07-30T09:40:49;94621.19;;;28.54;37.56
71194;BME280;58903;47.210;8.618;2022-07-30T09:46:44;94621.44;;;28.56;37.87
71194;BME280;58903;47.210;8.618;2022-07-30T09:49:20;94619.94;;;28.55;37.81
71194;BME280;58903;47.210;8.618;2022-07-30T09:52:26;94630.47;;;28.56;37.92
71194;BME280;58903;47.210;8.618;2022-07-30T09:54:54;94629.25;;;28.57;38.35
71194;BME280;58903;47.210;8.618;2022-07-30T09:57:20;94623.69;;;28.57;38.25
71194;BME280;58903;47.210;8.618;2022-07-30T09:59:46;94619.41;;;28.56;38.00
71194;BME280;58903;47.210;8.618;2022-07-30T10:02:12;94617.63;;;28.59;38.00
71194;BME280;58903;47.210;8.618;2022-07-30T10:04:42;94616.38;;;28.60;37.58
71194;BME280;58903;47.210;8.618;2022-07-30T10:07:19;94615.09;;;28.61;37.58
71194;BME280;58903;47.210;8.618;2022-07-30T10:09:47;94621.38;;;28.61;37.81
71194;BME280;58903;47.210;8.618;2022-07-30T10:12:15;94617.34;;;28.62;38.00
71194;BME280;58903;47.210;8.618;2022-07-30T10:14:46;94615.84;;;28.61;37.88
71194;BME280;58903;47.210;8.618;2022-07-30T10:20:31;94617.56;;;28.64;38.05
71194;BME280;58903;47.210;8.618;2022-07-30T10:23:17;94611.72;;;28.68;37.99
71194;BME280;58903;47.210;8.618;2022-07-30T10:25:46;94606.41;;;28.70;38.34
71194;BME280;58903;47.210;8.618;2022-07-30T10:28:42;94613.44;;;28.71;37.63
71194;BME280;58903;47.210;8.618;2022-07-30T10:31:24;94607.16;;;28.70;38.48
71194;BME280;58903;47.210;8.618;2022-07-30T10:34:01;94606.63;;;28.72;38.01
71194;BME280;58903;47.210;8.618;2022-07-30T10:36:29;94606.41;;;28.70;38.17
71194;BME280;58903;47.210;8.618;2022-07-30T10:39:02;94603.09;;;28.71;37.95
71194;BME280;58903;47.210;8.618;2022-07-30T10:48:19;94595.47;;;28.77;38.20
71194;BME280;58903;47.210;8.618;2022-07-30T10:50:54;94601.00;;;28.77;38.29
71194;BME280;58903;47.210;8.618;2022-07-30T10:53:54;94604.72;;;28.80;38.02
71194;BME280;58903;47.210;8.618;2022-07-30T10:56:29;94602.72;;;28.80;38.46
71194;BME280;58903;47.210;8.618;2022-07-30T10:59:05;94604.50;;;28.78;38.01
71194;BME280;58903;47.210;8.618;2022-07-30T11:06:46;94615.06;;;28.79;38.70
71194;BME280;58903;47.210;8.618;2022-07-30T11:15:10;94608.47;;;28.82;38.47
71194;BME280;58903;47.210;8.618;2022-07-30T11:18:05;94597.41;;;28.82;38.63
71194;BME280;58903;47.210;8.618;2022-07-30T11:20:35;94601.44;;;28.81;38.39
71194;BME280;58903;47.210;8.618;2022-07-30T11:25:56;94611.22;;;28.82;38.37
71194;BME280;58903;47.210;8.618;2022-07-30T11:28:39;94610.72;;;28.84;38.50
71194;BME280;58903;47.210;8.618;2022-07-30T11:31:28;94599.66;;;28.84;38.08
71194;BME280;58903;47.210;8.618;2022-07-30T11:37:06;94609.66;;;28.87;38.57
71194;BME280;58903;47.210;8.618;2022-07-30T11:45:38;94607.63;;;28.87;38.44
71194;BME280;58903;47.210;8.618;2022-07-30T11:51:20;94600.09;;;28.88;38.39
71194;BME280;58903;47.210;8.618;2022-07-30T11:54:22;94604.56;;;28.91;38.25
71194;BME280;58903;47.210;8.618;2022-07-30T11:57:15;94594.22;;;28.91;38.74
71194;BME280;58903;47.210;8.618;2022-07-30T11:59:55;94586.69;;;28.92;38.39
71194;BME280;58903;47.210;8.618;2022-07-30T12:02:26;94594.22;;;28.91;38.29
71194;BME280;58903;47.210;8.618;2022-07-30T12:04:54;94594.22;;;28.91;38.54
71194;BME280;58903;47.210;8.618;2022-07-30T12:07:54;94588.91;;;28.93;38.63
71194;BME280;58903;47.210;8.618;2022-07-30T12:10:33;94586.13;;;28.93;38.17
71194;BME280;58903;47.210;8.618;2022-07-30T12:13:38;94588.69;;;28.91;39.05
71194;BME280;58903;47.210;8.618;2022-07-30T12:16:17;94588.47;;;28.89;38.80
71194;BME280;58903;47.210;8.618;2022-07-30T12:18:52;94584.94;;;28.89;38.63
71194;BME280;58903;47.210;8.618;2022-07-30T12:21:31;94587.22;;;28.90;39.15
71194;BME280;58903;47.210;8.618;2022-07-30T12:24:00;94576.13;;;28.90;39.25
71194;BME280;58903;47.210;8.618;2022-07-30T12:26:29;94582.41;;;28.91;39.08
71194;BME280;58903;47.210;8.618;2022-07-30T12:28:56;94580.16;;;28.89;38.82
71194;BME280;58903;47.210;8.618;2022-07-30T12:31:25;94584.94;;;28.89;39.01
71194;BME280;58903;47.210;8.618;2022-07-30T12:33:52;94583.16;;;28.91;38.82
71194;BME280;58903;47.210;8.618;2022-07-30T12:36:39;94580.91;;;28.90;38.98
71194;BME280;58903;47.210;8.618;2022-07-30T12:39:17;94584.44;;;28.90;38.86
71194;BME280;58903;47.210;8.618;2022-07-30T12:41:48;94576.88;;;28.91;38.64
71194;BME280;58903;47.210;8.618;2022-07-30T12:44:39;94581.91;;;28.92;38.50
71194;BME280;58903;47.210;8.618;2022-07-30T12:47:28;94576.56;;;28.94;38.57
71194;BME280;58903;47.210;8.618;2022-07-30T12:50:15;94581.56;;;28.96;38.85
71194;BME280;58903;47.210;8.618;2022-07-30T12:52:48;94576.78;;;28.96;38.93
71194;BME280;58903;47.210;8.618;2022-07-30T12:55:32;94579.78;;;28.98;38.73
71194;BME280;58903;47.210;8.618;2022-07-30T12:58:06;94567.41;;;28.99;38.23
71194;BME280;58903;47.210;8.618;2022-07-30T13:03:21;94568.91;;;29.00;38.86
71194;BME280;58903;47.210;8.618;2022-07-30T13:05:50;94563.59;;;29.02;38.25
71194;BME280;58903;47.210;8.618;2022-07-30T13:08:19;94561.56;;;29.03;38.70
71194;BME280;58903;47.210;8.618;2022-07-30T13:10:55;94565.81;;;29.04;38.62
71194;BME280;58903;47.210;8.618;2022-07-30T13:13:35;94568.28;;;29.07;39.08
71194;BME280;58903;47.210;8.618;2022-07-30T13:16:33;94562.97;;;29.09;38.31
71194;BME280;58903;47.210;8.618;2022-07-30T13:18:59;94567.97;;;29.11;38.69
71194;BME280;58903;47.210;8.618;2022-07-30T13:21:31;94552.84;;;29.12;38.66
71194;BME280;58903;47.210;8.618;2022-07-30T13:24:13;94554.88;;;29.12;38.80
71194;BME280;58903;47.210;8.618;2022-07-30T13:26:48;94553.59;;;29.13;39.07
71194;BME280;58903;47.210;8.618;2022-07-30T13:29:33;94551.34;;;29.11;38.98
71194;BME280;58903;47.210;8.618;2022-07-30T13:32:18;94557.66;;;29.12;38.51
71194;BME280;58903;47.210;8.618;2022-07-30T13:34:46;94549.88;;;29.10;38.91
71194;BME280;58903;47.210;8.618;2022-07-30T13:37:14;94556.13;;;29.10;38.39
71194;BME280;58903;47.210;8.618;2022-07-30T13:39:41;94563.94;;;29.12;38.32
71194;BME280;58903;47.210;8.618;2022-07-30T13:42:28;94555.63;;;29.12;38.88
71194;BME280;58903;47.210;8.618;2022-07-30T13:45:22;94553.78;;;29.15;38.65
71194;BME280;58903;47.210;8.618;2022-07-30T13:47:49;94551.03;;;29.15;38.58
71194;BME280;58903;47.210;8.618;2022-07-30T13:50:22;94564.66;;;29.13;38.67
71194;BME280;58903;47.210;8.618;2022-07-30T13:53:21;94555.63;;;29.12;38.69
71194;BME280;58903;47.210;8.618;2022-07-30T13:56:03;94555.63;;;29.12;38.30
71194;BME280;58903;47.210;8.618;2022-07-30T13:58:43;94550.81;;;29.13;38.42
71194;BME280;58903;47.210;8.618;2022-07-30T14:01:22;94550.09;;;29.12;38.38
71194;BME280;58903;47.210;8.618;2022-07-30T14:03:48;94552.84;;;29.12;38.67
71194;BME280;58903;47.210;8.618;2022-07-30T14:06:14;94549.53;;;29.14;38.16
71194;BME280;58903;47.210;8.618;2022-07-30T14:08:43;94547.31;;;29.12;38.50
71194;BME280;58903;47.210;8.618;2022-07-30T14:11:11;94542.50;;;29.13;38.89
71194;BME280;58903;47.210;8.618;2022-07-30T14:13:37;94542.50;;;29.13;38.17
71194;BME280;58903;47.210;8.618;2022-07-30T14:16:04;94538.16;;;29.17;37.84
71194;BME280;58903;47.210;8.618;2022-07-30T14:18:42;94536.38;;;29.20;38.51
71194;BME280;58903;47.210;8.618;2022-07-30T14:21:11;94544.13;;;29.21;38.01
71194;BME280;58903;47.210;8.618;2022-07-30T14:23:46;94535.63;;;29.19;38.31
71194;BME280;58903;47.210;8.618;2022-07-30T14:26:43;94545.09;;;29.24;38.23
71194;BME280;58903;47.210;8.618;2022-07-30T14:29:10;94542.34;;;29.24;37.72
71194;BME280;58903;47.210;8.618;2022-07-30T14:31:37;94539.78;;;29.26;37.95